sensor_id;sensor_type;location;lat;lon;timestamp;pressure;altitude;pressure_sealevel;temperature;humidity
26978;BME280;56314;48.088;11.642;2023-04-01T00:00:25;94220.72;;;7.49;74.63
26978;BME280;56314;48.088;11.642;2023-04-01T00:02:50;94219.19;;;7.46;75.48
26978;BME280;56314;48.088;11.642;2023-04-01T00:05:16;94217.41;;;7.47;75.47
26978;BME280;56314;48.088;11.642;2023-04-01T00:07:42;94220.09;;;7.35;75.16
26978;BME280;56314;48.088;11.642;2023-04-01T00:10:09;94213.91;;;7.36;75.70
26978;BME280;56314;48.088;11.642;2023-04-01T00:12:35;94215.13;;;7.32;75.75
26978;BME280;56314;48.088;11.642;2023-04-01T00:15:02;94219.63;;;7.30;75.93
26978;BME280;56314;48.088;11.642;2023-04-01T00:17:27;94213.13;;;7.24;75.75
26978;BME280;56314;48.088;11.642;2023-04-01T00:19:55;94217.72;;;7.32;75.36
26978;BME280;56314;48.088;11.642;2023-04-01T00:22:20;94208.06;;;7.23;75.98
26978;BME280;56314;48.088;11.642;2023-04-01T00:24:46;94194.84;;;7.24;75.59
26978;BME280;56314;48.088;11.642;2023-04-01T00:27:12;94202.38;;;7.18;76.27
26978;BME280;56314;48.088;11.642;2023-04-01T00:29:37;94199.50;;;7.21;75.67
26978;BME280;56314;48.088;11.642;2023-04-01T00:32:02;94205.81;;;7.18;75.98
26978;BME280;56314;48.088;11.642;2023-04-01T00:34:28;94190.59;;;7.23;75.55
26978;BME280;56314;48.088;11.642;2023-04-01T00:36:53;94192.63;;;7.20;75.73
26978;BME280;56314;48.088;11.642;2023-04-01T00:39:20;94192.38;;;7.23;76.06
26978;BME280;56314;48.088;11.642;2023-04-01T00:41:46;94186.69;;;7.18;76.08
26978;BME280;56314;48.088;11.642;2023-04-01T00:46:43;94190.59;;;7.02;76.40
26978;BME280;56314;48.088;11.642;2023-04-01T00:49:09;94203.06;;;6.99;76.65
26978;BME280;56314;48.088;11.642;2023-04-01T00:51:34;94195.44;;;7.07;75.54
26978;BME280;56314;48.088;11.642;2023-04-01T00:54:03;94198.16;;;7.05;76.19
26978;BME280;56314;48.088;11.642;2023-04-01T00:56:35;94191.56;;;7.01;76.42
26978;BME280;56314;48.088;11.642;2023-04-01T00:59:06;94202.66;;;7.15;75.98
26978;BME280;56314;48.088;11.642;2023-04-01T01:01:34;94191.75;;;7.09;75.70
26978;BME280;56314;48.088;11.642;2023-04-01T01:04:01;94190.34;;;7.05;76.07
26978;BME280;56314;48.088;11.642;2023-04-01T01:07:09;94182.41;;;7.07;76.58
26978;BME280;56314;48.088;11.642;2023-04-01T01:12:30;94187.22;;;7.12;75.55
26978;BME280;56314;48.088;11.642;2023-04-01T01:28:39;94186.78;;;7.28;74.40
26978;BME280;56314;48.088;11.642;2023-04-01T01:31:24;94189.94;;;7.31;74.39
26978;BME280;56314;48.088;11.642;2023-04-01T01:36:33;94183.22;;;7.29;74.15
26978;BME280;56314;48.088;11.642;2023-04-01T01:39:04;94182.50;;;7.27;74.51
26978;BME280;56314;48.088;11.642;2023-04-01T01:41:32;94187.88;;;7.25;74.63
26978;BME280;56314;48.088;11.642;2023-04-01T01:43:59;94181.72;;;7.36;74.73
26978;BME280;56314;48.088;11.642;2023-04-01T01:46:29;94184.03;;;7.29;74.64
26978;BME280;56314;48.088;11.642;2023-04-01T01:48:56;94183.59;;;7.24;74.79
26978;BME280;56314;48.088;11.642;2023-04-01T01:51:23;94172.91;;;7.27;74.73
26978;BME280;56314;48.088;11.642;2023-04-01T01:53:49;94172.59;;;7.20;75.24
26978;BME280;56314;48.088;11.642;2023-04-01T01:56:19;94178.25;;;7.26;75.09
26978;BME280;56314;48.088;11.642;2023-04-01T01:58:49;94172.59;;;7.20;75.43
26978;BME280;56314;48.088;11.642;2023-04-01T02:01:24;94170.47;;;7.14;75.96
26978;BME280;56314;48.088;11.642;2023-04-01T02:03:52;94179.25;;;7.13;76.36
26978;BME280;56314;48.088;11.642;2023-04-01T02:06:21;94183.84;;;7.21;75.21
26978;BME280;56314;48.088;11.642;2023-04-01T02:08:51;94177.44;;;7.25;75.36
26978;BME280;56314;48.088;11.642;2023-04-01T02:11:45;94196.41;;;7.27;75.30
26978;BME280;56314;48.088;11.642;2023-04-01T02:14:16;94185.66;;;7.20;75.08
26978;BME280;56314;48.088;11.642;2023-04-01T02:19:17;94197.75;;;7.21;74.99
26978;BME280;56314;48.088;11.642;2023-04-01T02:21:50;94206.97;;;7.26;74.75
26978;BME280;56314;48.088;11.642;2023-04-01T02:24:19;94209.38;;;7.17;74.11
26978;BME280;56314;48.088;11.642;2023-04-01T02:26:48;94199.91;;;7.16;74.28
26978;BME280;56314;48.088;11.642;2023-04-01T02:29:18;94205.13;;;7.16;73.92
26978;BME280;56314;48.088;11.642;2023-04-01T02:31:44;94205.94;;;7.17;73.66
26978;BME280;56314;48.088;11.642;2023-04-01T02:34:10;94202.88;;;7.12;73.82
26978;BME280;56314;48.088;11.642;2023-04-01T02:36:36;94190.28;;;7.17;73.40
26978;BME280;56314;48.088;11.642;2023-04-01T02:39:03;94196.66;;;7.24;73.24
26978;BME280;56314;48.088;11.642;2023-04-01T02:41:30;94187.41;;;7.20;73.36
26978;BME280;56314;48.088;11.642;2023-04-01T02:43:55;94200.47;;;7.20;73.27
26978;BME280;56314;48.088;11.642;2023-04-01T02:46:22;94201.00;;;7.14;73.43
26978;BME280;56314;48.088;11.642;2023-04-01T02:48:48;94195.50;;;7.17;73.44
26978;BME280;56314;48.088;11.642;2023-04-01T02:51:13;94205.13;;;7.16;73.38
26978;BME280;56314;48.088;11.642;2023-04-01T02:53:38;94199.19;;;7.14;73.71
26978;BME280;56314;48.088;11.642;2023-04-01T02:56:04;94205.13;;;7.16;73.73
26978;BME280;56314;48.088;11.642;2023-04-01T02:58:29;94207.72;;;7.16;72.96
26978;BME280;56314;48.088;11.642;2023-04-01T03:00:55;94206.22;;;7.14;73.22
26978;BME280;56314;48.088;11.642;2023-04-01T03:03:20;94211.69;;;7.11;73.09
26978;BME280;56314;48.088;11.642;2023-04-01T03:05:46;94202.38;;;7.18;72.71
26978;BME280;56314;48.088;11.642;2023-04-01T03:08:11;94209.78;;;7.13;72.76
26978;BME280;56314;48.088;11.642;2023-04-01T03:10:37;94209.78;;;7.13;72.79
26978;BME280;56314;48.088;11.642;2023-04-01T03:13:02;94199.25;;;7.03;73.24
26978;BME280;56314;48.088;11.642;2023-04-01T03:15:28;94211.34;;;7.04;72.96
26978;BME280;56314;48.088;11.642;2023-04-01T03:17:53;94214.72;;;6.95;73.51
26978;BME280;56314;48.088;11.642;2023-04-01T03:20:18;94220.91;;;6.93;73.75
26978;BME280;56314;48.088;11.642;2023-04-01T03:22:44;94213.38;;;7.00;73.74
26978;BME280;56314;48.088;11.642;2023-04-01T03:25:11;94214.44;;;6.98;74.29
26978;BME280;56314;48.088;11.642;2023-04-01T03:27:36;94215.06;;;7.01;73.82
26978;BME280;56314;48.088;11.642;2023-04-01T03:30:03;94216.56;;;7.04;73.55
26978;BME280;56314;48.088;11.642;2023-04-01T03:32:29;94229.75;;;7.02;73.28
26978;BME280;56314;48.088;11.642;2023-04-01T03:34:55;94219.56;;;6.99;73.46
26978;BME280;56314;48.088;11.642;2023-04-01T03:37:24;94223.88;;;6.89;73.30
26978;BME280;56314;48.088;11.642;2023-04-01T03:39:49;94219.22;;;6.92;73.13
26978;BME280;56314;48.088;11.642;2023-04-01T03:42:15;94232.19;;;6.83;73.76
26978;BME280;56314;48.088;11.642;2023-04-01T03:44:40;94221.19;;;6.79;73.89
26978;BME280;56314;48.088;11.642;2023-04-01T03:47:05;94224.75;;;6.78;74.17
26978;BME280;56314;48.088;11.642;2023-04-01T03:49:31;94224.59;;;6.80;73.34
26978;BME280;56314;48.088;11.642;2023-04-01T03:51:57;94240.41;;;6.78;73.57
26978;BME280;56314;48.088;11.642;2023-04-01T03:54:22;94243.13;;;6.76;74.13
26978;BME280;56314;48.088;11.642;2023-04-01T03:56:48;94236.84;;;6.79;73.92
26978;BME280;56314;48.088;11.642;2023-04-01T03:59:14;94239.81;;;6.74;74.28
26978;BME280;56314;48.088;11.642;2023-04-01T04:01:39;94234.81;;;6.83;74.35
26978;BME280;56314;48.088;11.642;2023-04-01T04:04:07;94230.91;;;6.77;74.19
26978;BME280;56314;48.088;11.642;2023-04-01T04:06:35;94231.75;;;6.77;74.58
26978;BME280;56314;48.088;11.642;2023-04-01T04:09:01;94240.41;;;6.78;74.68
26978;BME280;56314;48.088;11.642;2023-04-01T04:11:26;94236.38;;;6.74;74.76
26978;BME280;56314;48.088;11.642;2023-04-01T04:13:52;94238.28;;;6.72;75.30
26978;BME280;56314;48.088;11.642;2023-04-01T04:16:20;94239.47;;;6.68;75.04
26978;BME280;56314;48.088;11.642;2023-04-01T04:18:45;94237.81;;;6.67;74.82
26978;BME280;56314;48.088;11.642;2023-04-01T04:21:13;94232.97;;;6.62;75.09
26978;BME280;56314;48.088;11.642;2023-04-01T04:23:39;94238.81;;;6.54;75.86
26978;BME280;56314;48.088;11.642;2023-04-01T04:26:06;94246.25;;;6.59;75.55
26978;BME280;56314;48.088;11.642;2023-04-01T04:28:32;94240.66;;;6.63;76.19
26978;BME280;56314;48.088;11.642;2023-04-01T04:30:59;94246.59;;;6.66;75.99
26978;BME280;56314;48.088;11.642;2023-04-01T04:33:25;94246.34;;;6.69;76.37
26978;BME280;56314;48.088;11.642;2023-04-01T04:35:54;94247.31;;;6.68;76.77
26978;BME280;56314;48.088;11.642;2023-04-01T04:38:20;94246.22;;;6.70;76.32
26978;BME280;56314;48.088;11.642;2023-04-01T04:40:47;94253.25;;;6.70;75.92
26978;BME280;56314;48.088;11.642;2023-04-01T04:43:14;94256.28;;;6.75;75.71
26978;BME280;56314;48.088;11.642;2023-04-01T04:45:41;94258.78;;;6.76;76.43
26978;BME280;56314;48.088;11.642;2023-04-01T04:48:11;94258.22;;;6.73;76.21
26978;BME280;56314;48.088;11.642;2023-04-01T04:50:41;94257.00;;;6.77;76.45
26978;BME280;56314;48.088;11.642;2023-04-01T04:53:08;94261.66;;;6.73;76.37
26978;BME280;56314;48.088;11.642;2023-04-01T04:55:34;94261.50;;;6.75;76.68
26978;BME280;56314;48.088;11.642;2023-04-01T04:57:59;94267.69;;;6.74;76.84
26978;BME280;56314;48.088;11.642;2023-04-01T05:00:25;94266.00;;;6.84;76.46
26978;BME280;56314;48.088;11.642;2023-04-01T05:02:50;94274.53;;;6.86;76.44
26978;BME280;56314;48.088;11.642;2023-04-01T05:05:15;94266.69;;;6.86;75.69
26978;BME280;56314;48.088;11.642;2023-04-01T05:07:41;94256.97;;;6.88;74.90
26978;BME280;56314;48.088;11.642;2023-04-01T05:10:06;94263.59;;;6.92;75.28
26978;BME280;56314;48.088;11.642;2023-04-01T05:12:32;94265.03;;;6.97;74.91
26978;BME280;56314;48.088;11.642;2023-04-01T05:15:02;94261.75;;;7.04;75.10
26978;BME280;56314;48.088;11.642;2023-04-01T05:17:28;94258.91;;;7.07;73.26
26978;BME280;56314;48.088;11.642;2023-04-01T05:19:53;94262.09;;;7.11;73.29
26978;BME280;56314;48.088;11.642;2023-04-01T05:22:18;94254.00;;;7.14;73.32
26978;BME280;56314;48.088;11.642;2023-04-01T05:24:44;94257.47;;;7.15;72.26
26978;BME280;56314;48.088;11.642;2023-04-01T05:27:09;94259.56;;;7.21;71.68
26978;BME280;56314;48.088;11.642;2023-04-01T05:29:34;94260.66;;;7.18;71.74
26978;BME280;56314;48.088;11.642;2023-04-01T05:32:00;94254.66;;;7.28;71.53
26978;BME280;56314;48.088;11.642;2023-04-01T05:34:25;94261.03;;;7.35;70.71
26978;BME280;56314;48.088;11.642;2023-04-01T05:36:50;94260.78;;;7.38;69.91
26978;BME280;56314;48.088;11.642;2023-04-01T05:39:17;94266.56;;;7.42;69.12
26978;BME280;56314;48.088;11.642;2023-04-01T05:41:43;94258.34;;;7.46;69.22
26978;BME280;56314;48.088;11.642;2023-04-01T05:44:11;94255.00;;;7.55;68.77
26978;BME280;56314;48.088;11.642;2023-04-01T05:46:37;94263.59;;;7.67;68.52
26978;BME280;56314;48.088;11.642;2023-04-01T05:49:02;94256.91;;;7.75;67.92
26978;BME280;56314;48.088;11.642;2023-04-01T05:51:28;94263.81;;;7.85;67.77
26978;BME280;56314;48.088;11.642;2023-04-01T05:53:53;94265.94;;;7.92;66.99
26978;BME280;56314;48.088;11.642;2023-04-01T05:56:18;94262.94;;;8.06;65.67
26978;BME280;56314;48.088;11.642;2023-04-01T05:58:47;94252.88;;;8.32;65.21
26978;BME280;56314;48.088;11.642;2023-04-01T06:01:15;94250.78;;;8.57;64.59
26978;BME280;56314;48.088;11.642;2023-04-01T06:03:41;94249.56;;;8.71;63.95
26978;BME280;56314;48.088;11.642;2023-04-01T06:06:13;94250.13;;;8.85;62.94
26978;BME280;56314;48.088;11.642;2023-04-01T06:08:42;94244.19;;;9.02;62.21
26978;BME280;56314;48.088;11.642;2023-04-01T06:14:01;94256.31;;;9.03;61.60
26978;BME280;56314;48.088;11.642;2023-04-01T06:19:36;94256.47;;;9.21;60.97
26978;BME280;56314;48.088;11.642;2023-04-01T06:25:24;94260.22;;;9.29;60.97
26978;BME280;56314;48.088;11.642;2023-04-01T06:42:10;94260.31;;;10.14;56.70
26978;BME280;56314;48.088;11.642;2023-04-01T06:45:11;94259.34;;;10.15;56.65
26978;BME280;56314;48.088;11.642;2023-04-01T06:56:01;94248.78;;;10.62;54.86
26978;BME280;56314;48.088;11.642;2023-04-01T06:58:52;94241.47;;;11.02;53.70
26978;BME280;56314;48.088;11.642;2023-04-01T07:01:21;94249.22;;;11.04;53.00
26978;BME280;56314;48.088;11.642;2023-04-01T07:03:53;94251.75;;;10.96;53.50
26978;BME280;56314;48.088;11.642;2023-04-01T07:06:28;94254.38;;;11.32;52.24
26978;BME280;56314;48.088;11.642;2023-04-01T07:09:00;94254.59;;;11.38;52.03
26978;BME280;56314;48.088;11.642;2023-04-01T07:11:31;94252.94;;;11.55;52.11
26978;BME280;56314;48.088;11.642;2023-04-01T07:17:02;94272.81;;;10.68;53.38
26978;BME280;56314;48.088;11.642;2023-04-01T07:19:42;94272.00;;;10.29;54.42
26978;BME280;56314;48.088;11.642;2023-04-01T07:22:35;94267.19;;;10.25;55.34
26978;BME280;56314;48.088;11.642;2023-04-01T07:25:18;94272.00;;;10.29;54.98
26978;BME280;56314;48.088;11.642;2023-04-01T07:27:46;94262.88;;;10.34;54.27
26978;BME280;56314;48.088;11.642;2023-04-01T07:30:20;94260.00;;;10.55;54.22
26978;BME280;56314;48.088;11.642;2023-04-01T07:33:03;94252.50;;;11.86;51.32
26978;BME280;56314;48.088;11.642;2023-04-01T07:38:54;94243.59;;;12.40;49.65
26978;BME280;56314;48.088;11.642;2023-04-01T07:41:45;94248.03;;;12.83;47.17
26978;BME280;56314;48.088;11.642;2023-04-01T07:44:39;94252.69;;;12.97;46.16
26978;BME280;56314;48.088;11.642;2023-04-01T07:54:59;94256.84;;;13.16;47.34
26978;BME280;56314;48.088;11.642;2023-04-01T08:00:30;94258.31;;;13.11;46.24
26978;BME280;56314;48.088;11.642;2023-04-01T08:05:48;94264.06;;;12.98;47.01
26978;BME280;56314;48.088;11.642;2023-04-01T08:11:06;94267.34;;;11.96;48.80
26978;BME280;56314;48.088;11.642;2023-04-01T08:13:45;94277.44;;;11.56;50.41
26978;BME280;56314;48.088;11.642;2023-04-01T08:16:35;94265.00;;;11.22;51.67
26978;BME280;56314;48.088;11.642;2023-04-01T08:19:28;94277.28;;;11.21;51.29
26978;BME280;56314;48.088;11.642;2023-04-01T08:21:58;94270.06;;;11.05;51.28
26978;BME280;56314;48.088;11.642;2023-04-01T08:24:39;94268.72;;;11.37;51.25
26978;BME280;56314;48.088;11.642;2023-04-01T08:27:12;94278.56;;;11.53;50.02
26978;BME280;56314;48.088;11.642;2023-04-01T08:32:28;94250.38;;;13.02;46.75
26978;BME280;56314;48.088;11.642;2023-04-01T08:37:37;94243.94;;;14.29;43.90
26978;BME280;56314;48.088;11.642;2023-04-01T08:50:58;94241.88;;;13.33;45.17
26978;BME280;56314;48.088;11.642;2023-04-01T08:54:02;94249.13;;;13.23;44.96
26978;BME280;56314;48.088;11.642;2023-04-01T08:59:29;94228.09;;;14.29;42.82
26978;BME280;56314;48.088;11.642;2023-04-01T09:13:20;94221.13;;;13.80;43.60
26978;BME280;56314;48.088;11.642;2023-04-01T09:19:10;94250.75;;;13.07;44.82
26978;BME280;56314;48.088;11.642;2023-04-01T09:27:18;94209.16;;;15.43;40.60
26978;BME280;56314;48.088;11.642;2023-04-01T09:38:28;94202.16;;;14.32;42.56
26978;BME280;56314;48.088;11.642;2023-04-01T09:57:26;94192.44;;;13.77;43.28
26978;BME280;56314;48.088;11.642;2023-04-01T10:00:10;94211.22;;;13.32;43.33
26978;BME280;56314;48.088;11.642;2023-04-01T10:32:51;94194.72;;;12.97;44.93
26978;BME280;56314;48.088;11.642;2023-04-01T10:46:57;94188.13;;;13.84;43.55
26978;BME280;56314;48.088;11.642;2023-04-01T10:49:48;94189.34;;;13.40;44.70
26978;BME280;56314;48.088;11.642;2023-04-01T10:52:35;94201.50;;;13.33;45.85
26978;BME280;56314;48.088;11.642;2023-04-01T10:55:48;94180.56;;;13.15;45.40
26978;BME280;56314;48.088;11.642;2023-04-01T11:01:08;94201.66;;;12.39;49.46
26978;BME280;56314;48.088;11.642;2023-04-01T11:28:27;94222.22;;;12.09;53.41
26978;BME280;56314;48.088;11.642;2023-04-01T11:33:49;94232.19;;;12.23;54.50
26978;BME280;56314;48.088;11.642;2023-04-01T11:42:11;94238.13;;;12.68;52.54
26978;BME280;56314;48.088;11.642;2023-04-01T11:44:45;94242.88;;;12.65;53.38
26978;BME280;56314;48.088;11.642;2023-04-01T11:47:25;94258.09;;;12.44;54.21
26978;BME280;56314;48.088;11.642;2023-04-01T11:55:37;94272.69;;;10.87;62.95
26978;BME280;56314;48.088;11.642;2023-04-01T12:09:12;94277.09;;;10.31;66.40
26978;BME280;56314;48.088;11.642;2023-04-01T12:12:00;94288.97;;;10.25;66.79
26978;BME280;56314;48.088;11.642;2023-04-01T12:14:44;94295.38;;;10.13;67.18
26978;BME280;56314;48.088;11.642;2023-04-01T12:36:46;94298.22;;;9.82;67.36
26978;BME280;56314;48.088;11.642;2023-04-01T12:45:01;94285.56;;;9.48;70.58
26978;BME280;56314;48.088;11.642;2023-04-01T12:48:26;94284.59;;;9.29;69.89
26978;BME280;56314;48.088;11.642;2023-04-01T12:57:17;94296.47;;;9.14;70.94
26978;BME280;56314;48.088;11.642;2023-04-01T13:07:51;94301.41;;;8.97;72.11
26978;BME280;56314;48.088;11.642;2023-04-01T13:16:11;94292.44;;;8.90;73.61
26978;BME280;56314;48.088;11.642;2023-04-01T13:19:03;94294.63;;;8.85;72.98
26978;BME280;56314;48.088;11.642;2023-04-01T13:32:21;94312.50;;;8.80;72.05
26978;BME280;56314;48.088;11.642;2023-04-01T13:35:02;94302.44;;;8.75;71.11
26978;BME280;56314;48.088;11.642;2023-04-01T13:38:16;94313.34;;;8.80;72.56
26978;BME280;56314;48.088;11.642;2023-04-01T14:01:58;94312.66;;;8.78;75.21
26978;BME280;56314;48.088;11.642;2023-04-01T14:08:11;94316.41;;;8.95;74.61
26978;BME280;56314;48.088;11.642;2023-04-01T14:13:37;94318.34;;;9.03;74.07
26978;BME280;56314;48.088;11.642;2023-04-01T14:24:41;94309.53;;;8.94;75.59
26978;BME280;56314;48.088;11.642;2023-04-01T14:30:13;94314.72;;;8.84;76.44
26978;BME280;56314;48.088;11.642;2023-04-01T14:33:06;94319.16;;;8.84;76.66
26978;BME280;56314;48.088;11.642;2023-04-01T14:41:06;94312.84;;;9.16;75.38
26978;BME280;56314;48.088;11.642;2023-04-01T14:44:05;94323.59;;;9.22;75.32
26978;BME280;56314;48.088;11.642;2023-04-01T14:49:37;94327.88;;;9.23;75.16
26978;BME280;56314;48.088;11.642;2023-04-01T14:52:22;94315.75;;;9.32;76.08
26978;BME280;56314;48.088;11.642;2023-04-01T14:54:51;94314.25;;;9.30;74.99
26978;BME280;56314;48.088;11.642;2023-04-01T14:57:25;94319.19;;;9.33;75.64
26978;BME280;56314;48.088;11.642;2023-04-01T15:22:18;94327.88;;;9.04;74.80
26978;BME280;56314;48.088;11.642;2023-04-01T15:30:38;94319.59;;;8.99;74.37
26978;BME280;56314;48.088;11.642;2023-04-01T15:39:14;94338.38;;;9.23;71.36
26978;BME280;56314;48.088;11.642;2023-04-01T15:42:11;94333.28;;;9.32;72.80
26978;BME280;56314;48.088;11.642;2023-04-01T15:47:28;94333.13;;;9.53;69.69
26978;BME280;56314;48.088;11.642;2023-04-01T15:50:03;94339.91;;;9.46;68.61
26978;BME280;56314;48.088;11.642;2023-04-01T16:00:27;94338.69;;;9.50;67.95
26978;BME280;56314;48.088;11.642;2023-04-01T16:05:59;94337.69;;;9.61;66.42
26978;BME280;56314;48.088;11.642;2023-04-01T16:11:49;94329.97;;;9.49;64.15
26978;BME280;56314;48.088;11.642;2023-04-01T16:14:26;94336.88;;;9.50;64.39
26978;BME280;56314;48.088;11.642;2023-04-01T16:28:11;94349.00;;;9.51;63.68
26978;BME280;56314;48.088;11.642;2023-04-01T16:31:09;94344.19;;;9.47;63.93
26978;BME280;56314;48.088;11.642;2023-04-01T16:39:29;94355.19;;;9.40;63.32
26978;BME280;56314;48.088;11.642;2023-04-01T16:47:40;94347.75;;;9.26;63.90
26978;BME280;56314;48.088;11.642;2023-04-01T16:50:20;94351.19;;;9.17;61.29
26978;BME280;56314;48.088;11.642;2023-04-01T16:53:34;94351.47;;;9.14;60.94
26978;BME280;56314;48.088;11.642;2023-04-01T16:58:33;94369.22;;;9.10;60.14
26978;BME280;56314;48.088;11.642;2023-04-01T17:01:23;94368.81;;;9.05;60.46
26978;BME280;56314;48.088;11.642;2023-04-01T17:03:53;94364.94;;;8.99;60.44
26978;BME280;56314;48.088;11.642;2023-04-01T17:06:41;94358.75;;;9.00;60.23
26978;BME280;56314;48.088;11.642;2023-04-01T17:14:45;94377.47;;;8.96;60.66
26978;BME280;56314;48.088;11.642;2023-04-01T17:22:53;94382.41;;;8.89;61.68
26978;BME280;56314;48.088;11.642;2023-04-01T17:25:38;94384.34;;;8.87;61.60
26978;BME280;56314;48.088;11.642;2023-04-01T17:36:55;94396.19;;;8.91;61.45
26978;BME280;56314;48.088;11.642;2023-04-01T17:39:41;94394.16;;;8.95;61.30
26978;BME280;56314;48.088;11.642;2023-04-01T17:42:22;94404.19;;;8.89;61.31
26978;BME280;56314;48.088;11.642;2023-04-01T17:47:55;94394.56;;;8.90;61.39
26978;BME280;56314;48.088;11.642;2023-04-01T17:50:55;94390.63;;;8.84;61.67
26978;BME280;56314;48.088;11.642;2023-04-01T17:57:03;94399.50;;;8.93;61.21
26978;BME280;56314;48.088;11.642;2023-04-01T17:59:38;94390.69;;;8.94;61.48
26978;BME280;56314;48.088;11.642;2023-04-01T18:05:03;94400.16;;;8.85;61.42
26978;BME280;56314;48.088;11.642;2023-04-01T18:07:45;94399.78;;;8.90;61.31
26978;BME280;56314;48.088;11.642;2023-04-01T18:10:26;94401.97;;;8.85;62.08
26978;BME280;56314;48.088;11.642;2023-04-01T18:13:16;94406.25;;;8.86;61.63
26978;BME280;56314;48.088;11.642;2023-04-01T18:16:11;94413.53;;;8.82;61.27
26978;BME280;56314;48.088;11.642;2023-04-01T18:18:58;94409.25;;;8.81;61.86
26978;BME280;56314;48.088;11.642;2023-04-01T18:24:14;94417.81;;;8.83;64.26
26978;BME280;56314;48.088;11.642;2023-04-01T18:26:44;94437.34;;;8.79;64.97
26978;BME280;56314;48.088;11.642;2023-04-01T18:31:51;94440.31;;;8.65;66.98
26978;BME280;56314;48.088;11.642;2023-04-01T18:34:39;94455.69;;;8.58;67.41
26978;BME280;56314;48.088;11.642;2023-04-01T18:37:22;94455.75;;;8.46;68.27
26978;BME280;56314;48.088;11.642;2023-04-01T18:40:02;94449.59;;;8.47;68.37
26978;BME280;56314;48.088;11.642;2023-04-01T18:45:25;94462.44;;;8.39;68.49
26978;BME280;56314;48.088;11.642;2023-04-01T18:50:50;94466.78;;;8.29;70.27
26978;BME280;56314;48.088;11.642;2023-04-01T18:53:35;94470.63;;;8.25;71.43
26978;BME280;56314;48.088;11.642;2023-04-01T18:56:14;94480.50;;;8.21;72.13
26978;BME280;56314;48.088;11.642;2023-04-01T18:58:58;94467.53;;;8.20;72.09
26978;BME280;56314;48.088;11.642;2023-04-01T19:01:31;94469.72;;;8.14;73.16
26978;BME280;56314;48.088;11.642;2023-04-01T19:06:46;94471.63;;;8.12;72.54
26978;BME280;56314;48.088;11.642;2023-04-01T19:09:24;94476.72;;;8.14;72.24
26978;BME280;56314;48.088;11.642;2023-04-01T19:22:30;94473.72;;;8.19;72.24
26978;BME280;56314;48.088;11.642;2023-04-01T19:25:25;94477.38;;;8.27;72.81
26978;BME280;56314;48.088;11.642;2023-04-01T19:28:16;94475.06;;;8.34;71.75
26978;BME280;56314;48.088;11.642;2023-04-01T19:41:39;94497.06;;;8.10;71.65
26978;BME280;56314;48.088;11.642;2023-04-01T19:52:36;94501.84;;;8.05;70.63
26978;BME280;56314;48.088;11.642;2023-04-01T19:55:22;94509.22;;;8.00;71.11
26978;BME280;56314;48.088;11.642;2023-04-01T19:58:23;94504.00;;;8.00;71.06
26978;BME280;56314;48.088;11.642;2023-04-01T20:01:03;94507.00;;;7.95;70.56
26978;BME280;56314;48.088;11.642;2023-04-01T20:14:56;94530.03;;;7.90;70.17
26978;BME280;56314;48.088;11.642;2023-04-01T20:25:23;94523.47;;;7.75;70.61
26978;BME280;56314;48.088;11.642;2023-04-01T20:27:54;94523.56;;;7.73;70.75
26978;BME280;56314;48.088;11.642;2023-04-01T20:47:51;94534.06;;;7.50;72.58
26978;BME280;56314;48.088;11.642;2023-04-01T20:50:28;94537.38;;;7.64;71.44
26978;BME280;56314;48.088;11.642;2023-04-01T20:53:01;94530.97;;;7.57;71.75
26978;BME280;56314;48.088;11.642;2023-04-01T20:55:47;94536.88;;;7.59;72.03
26978;BME280;56314;48.088;11.642;2023-04-01T21:04:22;94541.44;;;7.57;71.59
26978;BME280;56314;48.088;11.642;2023-04-01T21:09:44;94538.44;;;7.61;71.42
26978;BME280;56314;48.088;11.642;2023-04-01T21:15:12;94528.47;;;7.55;72.16
26978;BME280;56314;48.088;11.642;2023-04-01T21:17:58;94538.44;;;7.61;71.12
26978;BME280;56314;48.088;11.642;2023-04-01T21:23:40;94542.72;;;7.62;71.36
26978;BME280;56314;48.088;11.642;2023-04-01T21:29:33;94540.78;;;7.64;70.60
26978;BME280;56314;48.088;11.642;2023-04-01T21:34:43;94555.06;;;7.60;71.09
26978;BME280;56314;48.088;11.642;2023-04-01T21:59:18;94578.34;;;7.63;71.13
26978;BME280;56314;48.088;11.642;2023-04-01T22:05:20;94582.38;;;7.67;70.66
26978;BME280;56314;48.088;11.642;2023-04-01T22:13:53;94586.28;;;7.62;70.54
26978;BME280;56314;48.088;11.642;2023-04-01T22:17:13;94586.28;;;7.62;71.34
26978;BME280;56314;48.088;11.642;2023-04-01T22:22:05;94586.53;;;7.59;71.54
26978;BME280;56314;48.088;11.642;2023-04-01T22:25:04;94585.69;;;7.69;70.32
26978;BME280;56314;48.088;11.642;2023-04-01T22:27:55;94588.69;;;7.65;71.53
26978;BME280;56314;48.088;11.642;2023-04-01T22:30:41;94595.19;;;7.70;71.00
26978;BME280;56314;48.088;11.642;2023-04-01T22:33:19;94586.44;;;7.60;70.89
26978;BME280;56314;48.088;11.642;2023-04-01T22:36:18;94589.63;;;7.64;71.02
26978;BME280;56314;48.088;11.642;2023-04-01T22:39:01;94577.63;;;7.73;70.54
26978;BME280;56314;48.088;11.642;2023-04-01T22:41:46;94590.34;;;7.66;70.77
26978;BME280;56314;48.088;11.642;2023-04-01T22:50:57;94587.50;;;7.69;70.53
26978;BME280;56314;48.088;11.642;2023-04-01T22:56:12;94595.69;;;7.76;70.30
26978;BME280;56314;48.088;11.642;2023-04-01T22:58:50;94596.50;;;7.76;70.40
26978;BME280;56314;48.088;11.642;2023-04-01T23:01:22;94593.66;;;7.79;70.21
26978;BME280;56314;48.088;11.642;2023-04-01T23:03:49;94592.94;;;7.77;70.01
26978;BME280;56314;48.088;11.642;2023-04-01T23:06:22;94597.44;;;7.75;70.37
26978;BME280;56314;48.088;11.642;2023-04-01T23:09:08;94603.16;;;7.80;70.03
26978;BME280;56314;48.088;11.642;2023-04-01T23:11:44;94609.44;;;7.78;70.25
26978;BME280;56314;48.088;11.642;2023-04-01T23:19:40;94610.50;;;7.75;70.17
26978;BME280;56314;48.088;11.642;2023-04-01T23:24:41;94613.00;;;7.77;70.37
26978;BME280;56314;48.088;11.642;2023-04-01T23:35:58;94620.38;;;7.72;70.00
26978;BME280;56314;48.088;11.642;2023-04-01T23:38:33;94629.31;;;7.69;70.90